Time;durP1;ratioP1;P1;durP2;ratioP2;P2;SDS_P1;SDS_P2;PMS_P1;PMS_P2;Temp;Humidity;BMP_temperature;BMP_pressure;BME280_temperature;BME280_humidity;BME280_pressure;Samples;Min_cycle;Max_cycle;Signal;HPM_P1;HPM_P2
2022/06/02 00:00:12;;;;;;;5.78;4.88;;;;;;;9.27;100.00;100831.75;4868211;29;20044;-83
2022/06/02 00:02:46;;;;;;;5.38;4.88;;;;;;;9.27;100.00;100840.53;4871833;29;20604;-82
2022/06/02 00:05:19;;;;;;;;;;;;;;;9.27;100.00;100834.41;4885674;29;20391;-84
2022/06/02 00:07:59;;;;;;;5.85;5.25;;;;;;;9.24;100.00;100837.91;4887306;29;19923;-84
2022/06/02 00:10:35;;;;;;;6.53;5.35;;;;;;;9.22;100.00;100844.97;4869852;29;20045;-84
2022/06/02 00:13:19;;;;;;;4.72;4.32;;;;;;;9.21;100.00;100837.09;4887151;29;20036;-84
2022/06/02 00:15:57;;;;;;;6.20;5.00;;;;;;;9.20;100.00;100843.28;4867384;29;20041;-83
2022/06/02 00:18:50;;;;;;;5.85;4.97;;;;;;;9.19;100.00;100855.56;4872561;29;20063;-83
2022/06/02 00:21:42;;;;;;;5.97;5.35;;;;;;;9.24;100.00;100859.00;4886426;29;20056;-82
2022/06/02 00:24:19;;;;;;;6.00;5.30;;;;;;;9.26;100.00;100861.66;4901128;29;20047;-83
2022/06/02 00:27:18;;;;;;;6.47;5.75;;;;;;;9.27;100.00;100866.91;4878048;29;20072;-83
2022/06/02 00:30:18;;;;;;;6.15;5.55;;;;;;;9.29;100.00;100859.84;4868073;29;20658;-82
2022/06/02 00:32:59;;;;;;;6.28;5.68;;;;;;;9.29;100.00;100866.88;4851187;29;20052;-83
2022/06/02 00:36:01;;;;;;;5.22;4.70;;;;;;;9.33;100.00;100873.84;4849741;29;20336;-82
2022/06/02 00:38:34;;;;;;;7.22;5.93;;;;;;;9.35;100.00;100876.50;4880247;29;20056;-82
2022/06/02 00:41:20;;;;;;;6.60;5.90;;;;;;;9.36;100.00;100878.22;4881123;29;20084;-82
2022/06/02 00:43:50;;;;;;;6.50;5.50;;;;;;;9.36;100.00;100881.75;4885152;29;20104;-82
2022/06/02 00:46:23;;;;;;;6.05;5.25;;;;;;;9.41;100.00;100873.75;4865305;29;20049;-83
2022/06/02 00:49:19;;;;;;;5.50;5.00;;;;;;;9.38;100.00;100874.69;4885207;29;20539;-83
2022/06/02 00:52:12;;;;;;;6.20;5.28;;;;;;;9.38;100.00;100876.44;4893375;29;20041;-83
2022/06/02 00:58:01;;;;;;;6.63;5.95;;;;;;;9.44;100.00;100876.38;4873169;29;20086;-83
2022/06/02 01:00:49;;;;;;;6.47;5.85;;;;;;;9.40;100.00;100880.78;4870694;29;20037;-82
2022/06/02 01:03:20;;;;;;;6.40;5.80;;;;;;;9.38;100.00;100873.81;4847930;29;20056;-83
2022/06/02 01:06:08;;;;;;;6.70;6.00;;;;;;;9.39;100.00;100878.19;4863758;29;20127;-84
2022/06/02 01:09:02;;;;;;;5.90;5.30;;;;;;;9.35;100.00;100884.41;4858098;29;20446;-83
2022/06/02 01:11:48;;;;;;;5.97;5.27;;;;;;;9.38;100.00;100894.91;4863162;29;20376;-84
2022/06/02 01:14:33;;;;;;;7.15;5.18;;;;;;;9.32;100.00;100891.44;4865366;29;20045;-83
2022/06/02 01:17:27;;;;;;;6.25;5.32;;;;;;;9.30;100.00;100898.50;4867160;29;20048;-83
2022/06/02 01:20:06;;;;;;;6.43;5.83;;;;;;;9.32;100.00;100894.06;4881074;29;20499;-82
2022/06/02 01:23:07;;;;;;;6.85;6.13;;;;;;;9.34;100.00;100898.47;4868197;29;20294;-82
2022/06/02 01:25:53;;;;;;;9.02;6.38;;;;;;;9.36;100.00;100900.19;4875866;29;20044;-83
2022/06/02 01:28:41;;;;;;;6.95;6.25;;;;;;;9.35;100.00;100897.59;4861486;29;20426;-82
2022/06/02 01:31:45;;;;;;;7.35;6.45;;;;;;;9.35;100.00;100898.47;4880768;29;20490;-84
2022/06/02 01:34:36;;;;;;;6.40;5.68;;;;;;;9.33;100.00;100905.50;4865497;29;20124;-83
2022/06/02 01:37:26;;;;;;;8.48;6.97;;;;;;;9.30;100.00;100903.78;4860888;29;20044;-83
2022/06/02 01:40:22;;;;;;;6.80;5.82;;;;;;;9.27;100.00;100902.94;4850726;29;20047;-83
2022/06/02 01:42:55;;;;;;;6.72;6.03;;;;;;;9.26;100.00;100912.63;4857049;29;20109;-83
2022/06/02 01:45:35;;;;;;;7.25;5.90;;;;;;;9.25;100.00;100915.28;4894954;29;20056;-84
2022/06/02 01:48:26;;;;;;;6.88;6.03;;;;;;;9.21;100.00;100906.50;4867504;29;20052;-83
2022/06/02 01:51:25;;;;;;;6.57;5.53;;;;;;;9.20;100.00;100914.44;4878022;29;20554;-83
2022/06/02 01:54:19;;;;;;;8.35;6.60;;;;;;;9.17;100.00;100904.81;4859220;29;20045;-83
2022/06/02 01:57:14;;;;;;;7.47;6.50;;;;;;;9.14;100.00;100910.09;4889357;29;20052;-83
2022/06/02 01:59:52;;;;;;;7.70;6.22;;;;;;;9.11;100.00;100907.50;4855582;29;20048;-84
2022/06/02 02:03:00;;;;;;;7.00;6.30;;;;;;;8.96;100.00;100905.03;4890693;29;20044;-84
2022/06/02 02:05:50;;;;;;;6.82;6.10;;;;;;;8.82;100.00;100913.03;4835901;29;20470;-84
2022/06/02 02:08:35;;;;;;;6.70;6.00;;;;;;;8.73;100.00;100900.84;4850941;29;20433;-83
2022/06/02 02:11:26;;;;;;;7.20;6.50;;;;;;;8.67;100.00;100913.22;4855023;29;20386;-83
2022/06/02 02:14:30;;;;;;;8.13;6.50;;;;;;;8.57;100.00;100914.16;4875057;29;20048;-83
2022/06/02 02:17:05;;;;;;;6.43;5.57;;;;;;;8.51;100.00;100912.47;4892930;29;20467;-85
2022/06/02 02:19:46;;;;;;;8.70;7.15;;;;;;;8.67;100.00;100913.22;4863503;29;20037;-83
2022/06/02 02:22:25;;;;;;;7.68;6.78;;;;;;;8.60;100.00;100922.03;4864683;29;20045;-83
2022/06/02 02:25:01;;;;;;;8.18;6.68;;;;;;;8.59;100.00;100920.31;4866096;29;20051;-83
2022/06/02 02:28:04;;;;;;;8.75;7.35;;;;;;;8.57;100.00;100927.31;4878744;29;20129;-83
2022/06/02 02:30:43;;;;;;;9.30;6.90;;;;;;;8.57;100.00;100927.31;4868579;29;20040;-84
2022/06/02 02:33:40;;;;;;;7.82;6.80;;;;;;;8.63;100.00;100927.28;4863723;29;20044;-83
2022/06/02 02:36:32;;;;;;;8.85;7.95;;;;;;;8.68;100.00;100928.13;4864572;29;20052;-84
2022/06/02 02:39:49;;;;;;;8.63;7.65;;;;;;;8.71;100.00;100930.72;4883593;29;20052;-84
2022/06/02 02:42:30;;;;;;;8.95;7.68;;;;;;;8.73;100.00;100932.44;4851255;29;20521;-83
2022/06/02 02:45:31;;;;;;;8.60;7.32;;;;;;;8.75;100.00;100935.09;4868778;29;20051;-82
2022/06/02 02:48:28;;;;;;;8.45;6.90;;;;;;;8.79;100.00;100939.44;4883296;29;20045;-83
2022/06/02 02:51:01;;;;;;;8.35;7.05;;;;;;;8.84;100.00;100937.63;4862150;29;20048;-83
2022/06/02 02:53:40;;;;;;;10.93;8.63;;;;;;;8.91;100.00;100935.81;4845123;29;20497;-82
2022/06/02 02:56:12;;;;;;;10.85;8.15;;;;;;;8.94;100.00;100947.22;4847831;29;20379;-83
2022/06/02 02:58:49;;;;;;;8.85;7.85;;;;;;;8.97;100.00;100939.25;4886812;29;20052;-83
2022/06/02 03:01:27;;;;;;;9.35;8.10;;;;;;;8.98;100.00;100945.41;4874189;29;20033;-83
2022/06/02 03:04:16;;;;;;;10.68;8.50;;;;;;;8.95;100.00;100943.69;4861202;29;20055;-82
2022/06/02 03:06:43;;;;;;;11.82;8.95;;;;;;;8.96;100.00;100949.81;4862658;29;20052;-82
2022/06/02 03:09:22;;;;;;;13.35;9.23;;;;;;;8.93;100.00;100958.63;4860160;29;20036;-83
2022/06/02 03:11:57;;;;;;;9.48;8.15;;;;;;;8.86;100.00;100959.56;4883443;29;20052;-83
2022/06/02 03:14:40;;;;;;;10.10;8.15;;;;;;;8.79;100.00;100965.78;4862156;29;20052;-83
2022/06/02 03:17:37;;;;;;;7.68;6.72;;;;;;;8.67;100.00;100964.13;4863757;29;20052;-83
2022/06/02 03:20:50;;;;;;;9.15;7.47;;;;;;;8.62;100.00;100971.19;4861206;29;20040;-83
2022/06/02 03:23:34;;;;;;;9.02;7.70;;;;;;;8.53;100.00;100968.63;4862290;29;20053;-83
2022/06/02 03:26:07;;;;;;;9.00;7.72;;;;;;;8.49;100.00;100966.00;4856006;29;20052;-83
2022/06/02 03:29:01;;;;;;;11.13;8.43;;;;;;;8.50;100.00;100975.69;4861364;29;20488;-83
2022/06/02 03:31:48;;;;;;;10.45;8.18;;;;;;;8.43;100.00;100974.84;4867249;29;20048;-83
2022/06/02 03:34:24;;;;;;;8.40;7.40;;;;;;;8.36;100.00;100968.72;4878112;29;20056;-83
2022/06/02 03:37:28;;;;;;;13.02;9.95;;;;;;;8.36;100.00;100979.25;4868374;29;20197;-83
2022/06/02 03:40:04;;;;;;;9.33;7.13;;;;;;;8.29;100.00;100979.28;4879559;29;20044;-83
2022/06/02 03:42:39;;;;;;;9.23;7.65;;;;;;;8.30;100.00;100975.75;4881904;29;20047;-82
2022/06/02 03:45:14;;;;;;;10.15;7.95;;;;;;;8.33;100.00;100984.53;4878229;29;20052;-83
2022/06/02 03:48:03;;;;;;;9.75;7.70;;;;;;;8.34;100.00;100986.25;4874492;29;20084;-83
2022/06/02 03:50:54;;;;;;;10.23;8.48;;;;;;;8.35;100.00;100995.94;4872298;29;20684;-83
2022/06/02 03:53:40;;;;;;;11.57;9.20;;;;;;;8.39;100.00;100992.38;4890529;29;20049;-83
2022/06/02 03:56:18;;;;;;;11.57;9.50;;;;;;;8.55;100.00;101000.19;4889156;29;20088;-82
2022/06/02 03:59:26;;;;;;;13.25;10.55;;;;;;;8.67;100.00;101008.03;4867227;29;20049;-83
2022/06/02 04:02:02;;;;;;;12.73;9.77;;;;;;;8.71;100.00;101007.09;4847390;29;20059;-83
2022/06/02 04:04:37;;;;;;;13.35;10.85;;;;;;;8.82;100.00;101012.28;4863592;29;20045;-82
2022/06/02 04:07:30;;;;;;;14.02;10.75;;;;;;;9.02;100.00;101015.66;4867041;29;20068;-82
2022/06/02 04:10:19;;;;;;;19.67;13.20;;;;;;;9.29;100.00;101019.81;4846636;29;20045;-82
2022/06/02 04:15:49;;;;;;;14.25;11.07;;;;;;;9.54;100.00;101017.78;4874830;29;20044;-83
2022/06/02 04:18:32;;;;;;;15.02;10.55;;;;;;;9.68;100.00;101025.56;4874177;29;20049;-84
2022/06/02 04:21:27;;;;;;;14.70;11.65;;;;;;;9.72;100.00;101035.19;4866132;29;20430;-84
2022/06/02 04:24:31;;;;;;;13.27;10.75;;;;;;;9.79;100.00;101039.50;4867012;29;20053;-82
2022/06/02 04:27:22;;;;;;;16.35;12.15;;;;;;;9.76;100.00;101043.06;4846490;29;20116;-82
2022/06/02 04:29:59;;;;;;;13.52;10.38;;;;;;;9.78;100.00;101041.28;4863816;29;20100;-83
2022/06/02 04:32:45;;;;;;;12.93;10.25;;;;;;;9.77;100.00;101049.22;4850647;29;20048;-82
2022/06/02 04:35:38;;;;;;;13.60;10.65;;;;;;;9.89;100.00;101046.41;4845911;29;20045;-83
2022/06/02 04:38:22;;;;;;;14.55;10.63;;;;;;;9.90;100.00;101045.53;4847708;29;20045;-84
2022/06/02 04:44:02;;;;;;;13.05;10.90;;;;;;;9.99;100.00;101055.09;4922734;29;20428;-82
2022/06/02 04:46:55;;;;;;;12.30;9.65;;;;;;;10.05;100.00;101050.63;4885315;29;20055;-83
2022/06/02 04:49:59;;;;;;;12.60;10.07;;;;;;;10.21;100.00;101048.69;4907964;29;20066;-82
2022/06/02 04:52:44;;;;;;;11.38;9.52;;;;;;;10.35;100.00;101044.13;4879223;29;20093;-82
2022/06/02 04:55:29;;;;;;;10.40;8.93;;;;;;;10.47;100.00;101050.13;4899317;29;20059;-81
2022/06/02 04:58:17;;;;;;;15.27;10.18;;;;;;;10.58;100.00;101053.50;4884122;29;20051;-83
2022/06/02 05:01:02;;;;;;;12.52;10.27;;;;;;;10.66;100.00;101051.59;4898207;29;20040;-81
2022/06/02 05:04:23;;;;;;;12.23;9.20;;;;;;;10.95;100.00;101059.13;4890100;29;20060;-83
2022/06/02 05:07:19;;;;;;;14.75;10.38;;;;;;;11.11;100.00;101065.91;4857806;29;20057;-81
2022/06/02 05:10:15;;;;;;;12.82;9.70;;;;;;;11.25;100.00;101065.66;4862031;29;20667;-80
2022/06/02 05:13:00;;;;;;;11.43;9.70;;;;;;;11.47;100.00;101060.88;4864928;29;20041;-81
2022/06/02 05:15:56;;;;;;;12.43;9.48;;;;;;;11.68;100.00;101064.91;4897715;29;20202;-83
2022/06/02 05:18:38;;;;;;;11.30;9.60;;;;;;;11.75;100.00;101077.13;4897275;29;20395;-81
2022/06/02 05:21:18;;;;;;;11.25;10.10;;;;;;;11.70;100.00;101066.66;4899746;29;20433;-81
2022/06/02 05:24:06;;;;;;;11.05;9.48;;;;;;;11.72;100.00;101066.59;4894435;29;20047;-82
2022/06/02 05:27:07;;;;;;;11.60;9.25;;;;;;;11.64;100.00;101077.34;4908873;29;20040;-81
2022/06/02 05:29:44;;;;;;;14.27;9.70;;;;;;;11.63;100.00;101078.25;4900172;29;20056;-82
2022/06/02 05:32:26;;;;;;;13.00;10.55;;;;;;;11.61;100.00;101082.69;4879816;29;20491;-81
2022/06/02 05:35:18;;;;;;;14.25;10.95;;;;;;;11.61;100.00;101093.28;4910396;29;20059;-81
2022/06/02 05:38:01;;;;;;;11.82;9.95;;;;;;;11.58;100.00;101093.31;4896286;29;20044;-82
2022/06/02 05:40:41;;;;;;;12.30;10.75;;;;;;;11.52;100.00;101102.25;4896640;29;20096;-82
2022/06/02 05:43:25;;;;;;;15.07;10.50;;;;;;;11.50;100.00;101097.88;4879986;29;20160;-83
2022/06/02 05:46:12;;;;;;;12.68;10.50;;;;;;;11.59;100.00;101092.41;4879242;29;20048;-81
2022/06/02 05:49:08;;;;;;;13.73;11.05;;;;;;;11.43;100.00;101115.59;4909833;29;20102;-82
2022/06/02 05:51:56;;;;;;;11.60;10.18;;;;;;;11.48;100.00;101115.56;4978172;23;20059;-79
2022/06/02 05:54:47;;;;;;;13.90;12.10;;;;;;;11.55;100.00;101120.72;4874599;29;20060;-80
2022/06/02 05:57:37;;;;;;;15.32;11.93;;;;;;;11.42;100.00;101118.28;4862867;29;20570;-81
2022/06/02 06:00:26;;;;;;;14.25;11.68;;;;;;;11.51;100.00;101126.06;4881613;29;20078;-79
2022/06/02 06:02:59;;;;;;;15.10;12.07;;;;;;;11.57;100.00;101123.31;4874344;29;20052;-80
2022/06/02 06:05:33;;;;;;;15.63;12.38;;;;;;;11.83;100.00;101134.34;4867977;29;20455;-80
2022/06/02 06:08:18;;;;;;;12.88;10.85;;;;;;;11.98;100.00;101132.34;4842515;29;20053;-79
2022/06/02 06:10:55;;;;;;;12.70;10.52;;;;;;;12.24;100.00;101131.84;4840313;29;20045;-80
2022/06/02 06:13:39;;;;;;;13.50;11.70;;;;;;;12.33;100.00;101132.53;4814047;29;20056;-80
2022/06/02 06:16:28;;;;;;;14.10;10.45;;;;;;;12.56;100.00;101140.00;4843703;29;20060;-80
2022/06/02 06:19:07;;;;;;;13.30;10.70;;;;;;;12.48;100.00;101136.63;4860887;29;20056;-78
2022/06/02 06:21:48;;;;;;;12.35;10.40;;;;;;;12.42;100.00;101138.53;4838903;29;20061;-82
2022/06/02 06:24:45;;;;;;;13.43;10.18;;;;;;;12.45;100.00;101143.78;4869390;29;20041;-80
2022/06/02 06:27:25;;;;;;;10.23;8.98;;;;;;;12.63;100.00;101148.72;4860359;29;20411;-79
2022/06/02 06:30:32;;;;;;;11.82;9.43;;;;;;;13.05;100.00;101144.25;4857435;29;20467;-79
2022/06/02 06:33:17;;;;;;;12.43;9.48;;;;;;;13.25;100.00;101141.16;4848479;29;20057;-78
2022/06/02 06:36:17;;;;;;;9.95;8.15;;;;;;;13.87;100.00;101137.81;4863096;29;20052;-79
2022/06/02 06:38:47;;;;;;;9.30;7.28;;;;;;;14.13;97.57;101134.47;4847400;29;20049;-80
2022/06/02 06:41:20;;;;;;;8.90;8.00;;;;;;;14.44;93.47;101145.97;4845967;29;20506;-79
2022/06/02 06:44:06;;;;;;;9.43;7.32;;;;;;;14.44;94.11;101140.66;4853306;29;20130;-78
2022/06/02 06:46:40;;;;;;;7.57;6.80;;;;;;;14.83;91.12;101146.63;4849210;29;20052;-79
2022/06/02 06:49:16;;;;;;;7.82;7.03;;;;;;;15.42;90.36;101141.22;4847080;29;20045;-80
2022/06/02 06:52:11;;;;;;;9.52;7.60;;;;;;;15.58;84.77;101146.91;4861473;29;20045;-80
2022/06/02 06:54:54;;;;;;;9.27;7.28;;;;;;;14.82;84.34;101152.00;4840180;29;20093;-80
2022/06/02 06:57:34;;;;;;;8.70;7.70;;;;;;;15.16;86.91;101154.50;4855484;29;20057;-79
2022/06/02 07:00:08;;;;;;;12.30;8.23;;;;;;;15.42;82.20;101145.66;4859314;29;20093;-81
2022/06/02 07:02:57;;;;;;;7.72;6.55;;;;;;;15.60;85.02;101154.84;4838128;29;20045;-81
2022/06/02 07:05:48;;;;;;;8.43;7.28;;;;;;;15.61;83.55;101161.94;4883002;29;20049;-80
2022/06/02 07:08:36;;;;;;;9.77;7.45;;;;;;;15.53;82.48;101159.50;4847059;29;20061;-80
2022/06/02 07:12:50;;;;;;;7.25;6.53;;;;;;;15.45;82.91;101161.53;4855156;29;20069;-81
2022/06/02 07:14:04;;;;;;;7.38;6.57;;;;;;;15.37;83.90;101167.09;4863554;29;20053;-81
2022/06/02 07:16:35;;;;;;;9.10;6.55;;;;;;;15.66;84.33;101168.00;4867703;29;20049;-82
2022/06/02 07:19:28;;;;;;;6.75;5.78;;;;;;;16.08;79.86;101175.44;4852090;29;20053;-79
2022/06/02 07:22:03;;;;;;;7.07;6.32;;;;;;;16.39;75.11;101180.53;4846465;29;20037;-80
2022/06/02 07:24:30;;;;;;;7.15;6.07;;;;;;;16.38;72.73;101178.81;4848103;29;20048;-78
2022/06/02 07:27:20;;;;;;;6.35;5.68;;;;;;;16.52;70.50;101182.72;4853322;29;20144;-78
2022/06/02 07:30:03;;;;;;;7.70;6.53;;;;;;;16.38;67.20;101178.81;4880006;29;20053;-78
2022/06/02 07:32:48;;;;;;;6.50;5.10;;;;;;;16.68;70.14;101177.69;4843538;29;20043;-78
2022/06/02 07:35:43;;;;;;;5.43;4.75;;;;;;;16.46;70.45;101174.94;4827969;29;20045;-78
2022/06/02 07:38:44;;;;;;;6.75;5.90;;;;;;;16.32;69.61;101182.56;4860241;29;20045;-79
2022/06/02 07:41:21;;;;;;;7.15;5.82;;;;;;;16.69;70.57;101183.91;4844913;29;20057;-78
2022/06/02 07:44:18;;;;;;;5.78;4.72;;;;;;;17.08;68.56;101182.41;4827886;29;20533;-79
2022/06/02 07:47:06;;;;;;;5.72;5.13;;;;;;;17.26;66.96;101193.28;4850012;29;20049;-78
2022/06/02 07:50:01;;;;;;;13.23;5.32;;;;;;;17.55;65.82;101192.97;4849186;29;20049;-78
2022/06/02 07:53:12;;;;;;;8.00;5.20;;;;;;;17.39;65.95;101199.84;4862503;29;20052;-78
2022/06/02 07:56:03;;;;;;;6.28;5.38;;;;;;;17.30;66.25;101200.22;4842905;29;20049;-79
2022/06/02 07:59:00;;;;;;;5.72;4.82;;;;;;;17.07;67.47;101206.50;4873539;29;20502;-79
2022/06/02 08:01:53;;;;;;;6.93;3.80;;;;;;;16.83;67.67;101200.28;4882021;29;20050;-79
2022/06/02 08:04:30;;;;;;;6.95;4.70;;;;;;;17.08;64.00;101200.22;4828644;29;20419;-78
2022/06/02 08:07:06;;;;;;;5.10;4.03;;;;;;;17.64;65.67;101208.63;4817543;29;20065;-78
2022/06/02 08:09:45;;;;;;;5.47;4.28;;;;;;;18.06;62.44;101207.78;4862405;29;20052;-78
2022/06/02 08:12:35;;;;;;;4.40;3.28;;;;;;;18.18;63.31;101209.97;4844689;29;20034;-78
2022/06/02 08:15:11;;;;;;;3.60;2.60;;;;;;;18.59;60.83;101204.59;4853786;29;20506;-79
2022/06/02 08:18:12;;;;;;;4.60;3.22;;;;;;;19.02;57.43;101203.50;4863815;29;20049;-78
2022/06/02 08:20:52;;;;;;;5.35;3.33;;;;;;;19.35;58.14;101202.84;4812775;29;20053;-78
2022/06/02 08:23:25;;;;;;;6.72;3.60;;;;;;;19.54;55.53;101202.81;4847546;29;20051;-79
2022/06/02 08:25:57;;;;;;;3.15;2.65;;;;;;;19.54;53.25;101218.91;4880674;29;20054;-79
2022/06/02 08:28:51;;;;;;;4.13;3.60;;;;;;;19.12;54.09;101211.97;4871878;29;20426;-79
2022/06/02 08:31:21;;;;;;;5.78;3.85;;;;;;;18.84;54.63;101223.13;4848045;29;20056;-78
2022/06/02 08:34:02;;;;;;;5.05;2.65;;;;;;;18.77;56.28;101217.16;4849909;29;20049;-79
2022/06/02 08:36:34;;;;;;;4.80;3.22;;;;;;;18.62;54.79;101227.66;4835729;29;20419;-79
2022/06/02 08:39:39;;;;;;;3.45;2.67;;;;;;;19.02;56.58;101229.44;4830869;29;20053;-78
2022/06/02 08:42:22;;;;;;;6.35;3.90;;;;;;;18.63;54.42;101237.41;4818336;29;20106;-78
2022/06/02 08:45:16;;;;;;;3.67;3.00;;;;;;;18.48;53.28;101239.81;4847747;29;20045;-79
2022/06/02 08:48:11;;;;;;;3.65;2.95;;;;;;;18.38;54.01;101238.50;4838479;29;20051;-78
2022/06/02 08:50:57;;;;;;;4.10;3.22;;;;;;;17.96;56.31;101246.56;4827551;29;20049;-80
2022/06/02 08:53:52;;;;;;;4.38;3.00;;;;;;;17.54;59.50;101246.47;4828064;29;20145;-79
2022/06/02 08:56:50;;;;;;;4.85;2.80;;;;;;;17.39;58.06;101246.13;4845523;29;20045;-80
2022/06/02 08:59:29;;;;;;;4.75;3.10;;;;;;;17.80;59.52;101245.44;4844757;29;20044;-79
2022/06/02 09:02:19;;;;;;;3.53;3.20;;;;;;;18.38;57.28;101245.66;4888980;29;20045;-80
2022/06/02 09:05:14;;;;;;;4.45;3.17;;;;;;;18.90;54.46;101254.06;4864119;29;20045;-81
2022/06/02 09:08:01;;;;;;;3.95;2.67;;;;;;;19.30;48.64;101248.59;4862485;29;20049;-81
2022/06/02 09:10:34;;;;;;;4.05;3.33;;;;;;;19.22;49.75;101247.22;4878915;29;20593;-79
2022/06/02 09:13:45;;;;;;;3.53;2.30;;;;;;;19.32;52.31;101248.53;4864017;29;20072;-80
2022/06/02 09:16:17;;;;;;;2.92;2.40;;;;;;;19.43;50.54;101240.00;4849755;29;20108;-79
2022/06/02 09:18:50;;;;;;;2.30;1.98;;;;;;;19.37;49.50;101244.69;4863438;29;20049;-78
2022/06/02 09:21:40;;;;;;;5.13;2.03;;;;;;;19.11;49.66;101245.94;4844805;29;20069;-78
2022/06/02 09:24:22;;;;;;;2.70;2.13;;;;;;;19.03;48.43;101244.56;4876334;29;20037;-78
2022/06/02 09:27:16;;;;;;;2.90;2.00;;;;;;;19.22;49.91;101252.59;4863834;29;20419;-78
2022/06/02 09:29:55;;;;;;;;;;;;;;;19.24;43.85;101245.34;4862884;29;20070;-79
2022/06/02 09:33:33;;;;;;;2.10;1.40;;;;;;;19.59;48.35;101251.72;4867719;29;19927;-79
2022/06/02 09:36:19;;;;;;;2.08;1.52;;;;;;;19.84;45.32;101246.94;4851235;29;20060;-80
2022/06/02 09:38:55;;;;;;;2.50;1.70;;;;;;;19.92;43.18;101249.19;4809144;29;20060;-78
2022/06/02 09:41:34;;;;;;;1.77;1.63;;;;;;;19.21;43.96;101250.84;4871305;29;20120;-82
2022/06/02 09:44:16;;;;;;;1.65;1.30;;;;;;;19.00;45.94;101258.06;4879461;29;20529;-80
2022/06/02 09:47:29;;;;;;;2.53;1.70;;;;;;;18.67;48.97;101260.47;4848241;29;20102;-79
2022/06/02 09:50:27;;;;;;;6.20;2.47;;;;;;;18.30;51.77;101267.38;4838504;29;20059;-80
2022/06/02 09:53:13;;;;;;;3.67;1.67;;;;;;;18.23;49.31;101264.09;4829290;29;20044;-81
2022/06/02 09:55:58;;;;;;;2.55;1.60;;;;;;;18.86;47.60;101252.50;4870152;29;20045;-81
2022/06/02 09:59:00;;;;;;;2.05;1.40;;;;;;;18.74;46.98;101267.28;4857479;29;20052;-81
2022/06/02 10:01:37;;;;;;;2.65;1.85;;;;;;;18.46;51.35;101273.81;4878406;29;20047;-80
2022/06/02 10:04:15;;;;;;;1.83;1.65;;;;;;;18.19;52.55;101264.31;4872242;29;20040;-79
2022/06/02 10:07:10;;;;;;;4.82;2.15;;;;;;;18.65;49.18;101279.25;4864669;29;20051;-81
2022/06/02 10:09:56;;;;;;;1.63;1.30;;;;;;;18.65;45.69;101278.34;4850358;29;20053;-81
2022/06/02 10:12:54;;;;;;;3.00;1.30;;;;;;;19.09;47.35;101266.56;4859151;29;20493;-80
2022/06/02 10:15:34;;;;;;;2.53;1.58;;;;;;;20.09;48.31;101269.81;4869252;29;20056;-80
2022/06/02 10:18:04;;;;;;;2.80;1.30;;;;;;;20.57;44.28;101263.78;4850270;29;20055;-79
2022/06/02 10:21:00;;;;;;;1.98;1.45;;;;;;;20.59;44.31;101269.06;4854843;29;20056;-80
2022/06/02 10:24:24;;;;;;;2.25;1.15;;;;;;;20.24;42.24;101272.59;4879569;29;20030;-78
2022/06/02 10:27:01;;;;;;;2.95;1.40;;;;;;;19.45;45.31;101284.53;4821969;29;20061;-78
2022/06/02 10:29:46;;;;;;;2.13;1.23;;;;;;;18.66;47.38;101289.03;4791507;29;20049;-81
2022/06/02 10:32:39;;;;;;;1.50;1.30;;;;;;;18.30;48.06;101299.50;4839144;29;20058;-79
2022/06/02 10:35:30;;;;;;;1.90;1.40;;;;;;;17.97;46.29;101294.59;4853107;29;20072;-82
2022/06/02 10:38:03;;;;;;;1.80;1.40;;;;;;;17.64;47.75;101299.47;4874450;29;20044;-79
2022/06/02 10:40:45;;;;;;;1.10;1.00;;;;;;;18.23;49.89;101287.31;4862177;29;20040;-78
2022/06/02 10:43:51;;;;;;;5.60;2.13;;;;;;;19.38;48.26;101280.41;4863111;29;20048;-81
2022/06/02 10:46:46;;;;;;;3.30;1.73;;;;;;;19.84;45.14;101281.78;4842809;29;20050;-80
2022/06/02 10:49:19;;;;;;;3.28;1.20;;;;;;;20.41;44.14;101295.00;4834117;29;20062;-81
2022/06/02 10:52:42;;;;;;;1.60;1.50;;;;;;;20.12;41.75;101286.63;4862506;29;20041;-81
2022/06/02 10:55:15;;;;;;;2.97;1.75;;;;;;;20.62;42.27;101288.56;4839601;29;20469;-78
2022/06/02 10:57:42;;;;;;;2.92;1.77;;;;;;;21.11;41.88;101293.16;4874297;29;20046;-80
2022/06/02 11:00:42;;;;;;;3.55;1.77;;;;;;;21.51;38.51;101298.09;4864504;29;20053;-81
2022/06/02 11:03:53;;;;;;;1.70;1.35;;;;;;;21.06;36.98;101290.72;4858048;29;20045;-80
2022/06/02 11:06:55;;;;;;;3.05;1.40;;;;;;;21.11;40.41;101293.16;4866428;29;20452;-78
2022/06/02 11:09:42;;;;;;;2.25;1.75;;;;;;;20.60;41.04;101295.84;4859100;29;20051;-80
2022/06/02 11:12:27;;;;;;;1.80;1.20;;;;;;;20.07;41.43;101310.13;4870495;29;20139;-80
2022/06/02 11:15:02;;;;;;;1.30;1.20;;;;;;;20.05;39.58;101301.28;4877145;29;20135;-80
2022/06/02 11:17:48;;;;;;;1.77;1.10;;;;;;;20.51;40.74;101301.66;4848086;29;20045;-80
2022/06/02 11:20:35;;;;;;;4.22;1.40;;;;;;;20.65;38.12;101295.59;4867332;29;20055;-78
2022/06/02 11:23:37;;;;;;;1.20;1.10;;;;;;;20.04;40.38;101304.94;4848438;29;20045;-80
2022/06/02 11:26:24;;;;;;;1.92;1.20;;;;;;;18.88;41.48;101306.81;4878401;29;20044;-79
2022/06/02 11:29:33;;;;;;;2.78;1.40;;;;;;;18.79;44.60;101314.31;4863783;29;20049;-79
2022/06/02 11:32:37;;;;;;;2.13;1.20;;;;;;;18.71;46.71;101323.63;4862981;29;20044;-79
2022/06/02 11:35:34;;;;;;;1.30;1.20;;;;;;;18.45;44.26;101314.88;4865975;29;20049;-78
2022/06/02 11:38:19;;;;;;;2.42;1.30;;;;;;;18.77;46.71;101318.88;4870405;29;20052;-79
2022/06/02 11:41:00;;;;;;;2.15;1.35;;;;;;;19.20;46.18;101308.91;4869659;29;20042;-80
2022/06/02 11:43:47;;;;;;;1.83;1.40;;;;;;;19.53;45.47;101317.19;4860890;29;20414;-81
2022/06/02 11:46:33;;;;;;;1.25;1.15;;;;;;;19.65;43.08;101292.50;4848602;29;20073;-79
2022/06/02 11:49:35;;;;;;;2.45;1.23;;;;;;;20.12;44.57;101300.03;4861285;29;20053;-81
2022/06/02 11:52:30;;;;;;;1.70;1.20;;;;;;;20.07;41.71;101303.91;4885094;29;20044;-78
2022/06/02 11:55:06;;;;;;;1.42;1.23;;;;;;;19.72;40.91;101306.50;4867398;29;20706;-78
2022/06/02 11:57:44;;;;;;;4.65;1.80;;;;;;;19.42;43.98;101300.72;4866493;29;20059;-79
2022/06/02 12:00:32;;;;;;;1.20;1.10;;;;;;;19.48;41.75;101313.84;4881784;29;20068;-78
2022/06/02 12:03:26;;;;;;;2.03;1.40;;;;;;;19.47;41.59;101301.41;4883086;29;20487;-77
2022/06/02 12:06:01;;;;;;;;;;;;;;;19.36;42.76;101309.09;4865758;29;20106;-80
2022/06/02 12:08:42;;;;;;;2.28;1.90;;;;;;;18.87;43.34;101311.31;4847411;29;19924;-82
2022/06/02 12:11:24;;;;;;;1.60;1.40;;;;;;;18.61;43.58;101317.78;4923766;23;20036;-82
2022/06/02 12:14:19;;;;;;;1.20;1.10;;;;;;;18.36;45.41;101317.97;4877465;29;20044;-82
2022/06/02 12:17:02;;;;;;;2.38;1.25;;;;;;;18.41;46.79;101317.75;4892100;29;20056;-83
2022/06/02 12:19:35;;;;;;;1.45;1.00;;;;;;;18.41;47.40;101315.06;4865073;29;20048;-82
2022/06/02 12:22:25;;;;;;;1.35;1.20;;;;;;;18.29;46.06;101320.00;4864931;29;20486;-83
2022/06/02 12:25:32;;;;;;;1.20;0.98;;;;;;;18.02;45.00;101323.84;4880458;29;20139;-83
2022/06/02 12:28:23;;;;;;;2.28;1.35;;;;;;;18.37;46.17;101322.38;4903596;29;20484;-84
2022/06/02 12:31:21;;;;;;;1.65;1.55;;;;;;;18.52;45.80;101329.75;4845984;29;20065;-83
2022/06/02 12:34:09;;;;;;;1.98;1.23;;;;;;;18.60;46.87;101324.06;4871943;29;20141;-83
2022/06/02 12:37:00;;;;;;;3.13;1.48;;;;;;;18.57;46.17;101329.53;4847350;29;20052;-82
2022/06/02 12:39:40;;;;;;;2.38;1.60;;;;;;;18.81;45.12;101327.63;4845075;29;20072;-83
2022/06/02 12:42:34;;;;;;;1.30;1.20;;;;;;;19.28;46.90;101314.78;4865783;29;20041;-82
2022/06/02 12:45:22;;;;;;;1.40;1.30;;;;;;;19.67;43.70;101320.13;4860848;29;20525;-82
2022/06/02 12:48:02;;;;;;;2.38;1.35;;;;;;;20.09;43.09;101326.13;4867569;29;20051;-83
2022/06/02 12:50:52;;;;;;;1.63;1.45;;;;;;;20.10;43.93;101323.41;4875783;29;20045;-82
2022/06/02 12:53:34;;;;;;;1.80;1.40;;;;;;;19.69;43.89;101330.78;4861994;29;20049;-86
2022/06/02 12:56:39;;;;;;;2.00;1.58;;;;;;;19.45;44.86;101330.09;4858841;29;20056;-83
2022/06/02 12:59:05;;;;;;;;;;;;;;;19.30;45.51;101334.34;4839759;29;20065;-84
2022/06/02 13:01:50;;;;;;;3.47;1.42;;;;;;;19.26;45.07;101329.22;4846862;29;19923;-82